sensor_id;sensor_type;location;lat;lon;timestamp;pressure;altitude;pressure_sealevel;temperature;humidity
13869;BME280;7004;48.206;16.402;2023-09-18T00:00:30;99708.91;;;19.91;91.40
13869;BME280;7004;48.206;16.402;2023-09-18T00:02:56;99713.44;;;20.17;89.94
13869;BME280;7004;48.206;16.402;2023-09-18T00:05:22;99707.38;;;20.15;89.27
13869;BME280;7004;48.206;16.402;2023-09-18T00:07:48;99694.72;;;19.99;90.92
13869;BME280;7004;48.206;16.402;2023-09-18T00:10:14;99696.28;;;20.10;90.15
13869;BME280;7004;48.206;16.402;2023-09-18T00:12:40;99701.50;;;20.11;89.86
13869;BME280;7004;48.206;16.402;2023-09-18T00:15:07;99697.41;;;19.99;90.72
13869;BME280;7004;48.206;16.402;2023-09-18T00:17:36;99698.28;;;20.07;90.18
13869;BME280;7004;48.206;16.402;2023-09-18T00:20:03;99692.91;;;20.07;89.80
13869;BME280;7004;48.206;16.402;2023-09-18T00:22:33;99694.03;;;19.97;90.88
13869;BME280;7004;48.206;16.402;2023-09-18T00:24:59;99682.19;;;19.81;92.23
13869;BME280;7004;48.206;16.402;2023-09-18T00:27:25;99686.66;;;19.73;92.23
13869;BME280;7004;48.206;16.402;2023-09-18T00:29:51;99683.75;;;19.92;91.05
13869;BME280;7004;48.206;16.402;2023-09-18T00:32:17;99683.69;;;20.10;89.60
13869;BME280;7004;48.206;16.402;2023-09-18T00:34:43;99682.00;;;20.01;90.06
13869;BME280;7004;48.206;16.402;2023-09-18T00:37:09;99683.66;;;20.02;90.67
13869;BME280;7004;48.206;16.402;2023-09-18T00:39:38;99689.81;;;19.68;92.22
13869;BME280;7004;48.206;16.402;2023-09-18T00:42:04;99688.06;;;19.41;93.86
13869;BME280;7004;48.206;16.402;2023-09-18T00:44:30;99688.13;;;19.49;93.13
13869;BME280;7004;48.206;16.402;2023-09-18T00:46:56;99688.66;;;19.53;93.13
13869;BME280;7004;48.206;16.402;2023-09-18T00:49:23;99679.47;;;19.55;92.83
13869;BME280;7004;48.206;16.402;2023-09-18T00:51:50;99686.03;;;19.61;92.99
13869;BME280;7004;48.206;16.402;2023-09-18T00:54:18;99683.53;;;19.77;91.11
13869;BME280;7004;48.206;16.402;2023-09-18T00:56:46;99674.09;;;19.73;91.73
13869;BME280;7004;48.206;16.402;2023-09-18T00:59:14;99672.56;;;19.53;93.48
13869;BME280;7004;48.206;16.402;2023-09-18T01:01:44;99675.06;;;19.46;93.45
13869;BME280;7004;48.206;16.402;2023-09-18T01:04:12;99677.75;;;19.10;94.95
13869;BME280;7004;48.206;16.402;2023-09-18T01:06:39;99677.41;;;19.67;91.87
13869;BME280;7004;48.206;16.402;2023-09-18T01:09:05;99672.16;;;19.21;94.65
13869;BME280;7004;48.206;16.402;2023-09-18T01:12:11;99671.03;;;19.94;90.80
13869;BME280;7004;48.206;16.402;2023-09-18T01:17:12;99660.38;;;19.76;89.48
13869;BME280;7004;48.206;16.402;2023-09-18T01:19:46;99657.53;;;19.16;93.18
13869;BME280;7004;48.206;16.402;2023-09-18T01:22:16;99662.31;;;18.86;95.80
13869;BME280;7004;48.206;16.402;2023-09-18T01:24:46;99649.78;;;19.49;94.13
13869;BME280;7004;48.206;16.402;2023-09-18T01:27:17;99647.13;;;19.13;95.21
13869;BME280;7004;48.206;16.402;2023-09-18T01:29:47;99648.38;;;19.45;92.92
13869;BME280;7004;48.206;16.402;2023-09-18T01:32:15;99640.53;;;19.43;93.11
13869;BME280;7004;48.206;16.402;2023-09-18T01:34:49;99640.97;;;19.38;92.43
13869;BME280;7004;48.206;16.402;2023-09-18T01:37:25;99646.31;;;19.56;91.25
13869;BME280;7004;48.206;16.402;2023-09-18T01:39:52;99643.59;;;19.30;93.49
13869;BME280;7004;48.206;16.402;2023-09-18T01:42:20;99644.72;;;19.46;92.27
13869;BME280;7004;48.206;16.402;2023-09-18T01:44:47;99638.19;;;19.48;91.94
13869;BME280;7004;48.206;16.402;2023-09-18T01:47:19;99634.56;;;19.31;93.31
13869;BME280;7004;48.206;16.402;2023-09-18T01:49:45;99634.50;;;19.05;94.52
13869;BME280;7004;48.206;16.402;2023-09-18T01:52:12;99631.84;;;19.05;94.67
13869;BME280;7004;48.206;16.402;2023-09-18T01:54:38;99632.16;;;18.84;95.47
13869;BME280;7004;48.206;16.402;2023-09-18T01:57:05;99626.41;;;18.79;95.53
13869;BME280;7004;48.206;16.402;2023-09-18T01:59:33;99628.22;;;19.14;93.39
13869;BME280;7004;48.206;16.402;2023-09-18T02:02:00;99622.91;;;18.96;94.86
13869;BME280;7004;48.206;16.402;2023-09-18T02:04:27;99630.44;;;19.01;94.31
13869;BME280;7004;48.206;16.402;2023-09-18T02:06:53;99626.09;;;19.18;92.83
13869;BME280;7004;48.206;16.402;2023-09-18T02:09:19;99616.19;;;19.18;92.56
13869;BME280;7004;48.206;16.402;2023-09-18T02:11:47;99623.88;;;18.77;94.99
13869;BME280;7004;48.206;16.402;2023-09-18T02:14:14;99623.09;;;18.85;94.42
13869;BME280;7004;48.206;16.402;2023-09-18T02:16:42;99626.34;;;19.07;92.82
13869;BME280;7004;48.206;16.402;2023-09-18T02:19:13;99621.50;;;18.92;93.24
13869;BME280;7004;48.206;16.402;2023-09-18T02:21:40;99623.94;;;18.86;95.22
13869;BME280;7004;48.206;16.402;2023-09-18T02:24:07;99622.66;;;18.62;95.92
13869;BME280;7004;48.206;16.402;2023-09-18T02:26:33;99622.03;;;18.78;94.50
13869;BME280;7004;48.206;16.402;2023-09-18T02:29:05;99612.56;;;18.84;95.21
13869;BME280;7004;48.206;16.402;2023-09-18T02:31:31;99606.16;;;18.67;94.93
13869;BME280;7004;48.206;16.402;2023-09-18T02:33:57;99603.47;;;18.67;94.64
13869;BME280;7004;48.206;16.402;2023-09-18T02:36:23;99605.25;;;18.58;95.80
13869;BME280;7004;48.206;16.402;2023-09-18T02:38:50;99603.75;;;18.28;97.78
13869;BME280;7004;48.206;16.402;2023-09-18T02:41:16;99605.47;;;18.65;95.45
13869;BME280;7004;48.206;16.402;2023-09-18T02:43:42;99607.63;;;18.61;95.19
13869;BME280;7004;48.206;16.402;2023-09-18T02:46:08;99595.34;;;18.86;93.81
13869;BME280;7004;48.206;16.402;2023-09-18T02:48:35;99595.75;;;18.46;96.89
13869;BME280;7004;48.206;16.402;2023-09-18T02:51:01;99590.19;;;18.75;94.20
13869;BME280;7004;48.206;16.402;2023-09-18T02:53:28;99594.53;;;18.58;94.59
13869;BME280;7004;48.206;16.402;2023-09-18T02:55:56;99595.72;;;18.91;92.89
13869;BME280;7004;48.206;16.402;2023-09-18T02:58:23;99594.19;;;19.07;92.08
13869;BME280;7004;48.206;16.402;2023-09-18T03:00:52;99598.69;;;19.06;92.97
13869;BME280;7004;48.206;16.402;2023-09-18T03:03:23;99601.28;;;18.80;94.41
13869;BME280;7004;48.206;16.402;2023-09-18T03:05:49;99596.38;;;18.58;96.46
13869;BME280;7004;48.206;16.402;2023-09-18T03:08:15;99594.00;;;18.72;94.82
13869;BME280;7004;48.206;16.402;2023-09-18T03:10:43;99598.56;;;18.62;94.69
13869;BME280;7004;48.206;16.402;2023-09-18T03:13:12;99597.44;;;18.65;95.12
13869;BME280;7004;48.206;16.402;2023-09-18T03:15:39;99588.50;;;18.56;95.00
13869;BME280;7004;48.206;16.402;2023-09-18T03:18:06;99599.94;;;18.48;96.09
13869;BME280;7004;48.206;16.402;2023-09-18T03:20:33;99583.91;;;18.48;96.42
13869;BME280;7004;48.206;16.402;2023-09-18T03:23:02;99580.56;;;18.19;97.63
13869;BME280;7004;48.206;16.402;2023-09-18T03:25:28;99577.53;;;18.31;97.61
13869;BME280;7004;48.206;16.402;2023-09-18T03:27:56;99576.38;;;18.16;97.67
13869;BME280;7004;48.206;16.402;2023-09-18T03:30:24;99573.25;;;17.93;99.28
13869;BME280;7004;48.206;16.402;2023-09-18T03:32:51;99566.59;;;17.97;98.69
13869;BME280;7004;48.206;16.402;2023-09-18T03:35:18;99573.38;;;18.19;97.01
13869;BME280;7004;48.206;16.402;2023-09-18T03:37:50;99567.94;;;18.11;97.31
13869;BME280;7004;48.206;16.402;2023-09-18T03:40:18;99563.03;;;18.06;97.67
13869;BME280;7004;48.206;16.402;2023-09-18T03:42:47;99562.69;;;17.92;98.43
13869;BME280;7004;48.206;16.402;2023-09-18T03:45:15;99555.41;;;17.84;98.71
13869;BME280;7004;48.206;16.402;2023-09-18T03:47:43;99548.97;;;18.04;97.50
13869;BME280;7004;48.206;16.402;2023-09-18T03:50:10;99557.03;;;17.95;97.49
13869;BME280;7004;48.206;16.402;2023-09-18T03:52:38;99545.78;;;18.19;96.40
13869;BME280;7004;48.206;16.402;2023-09-18T03:55:05;99551.28;;;18.17;96.46
13869;BME280;7004;48.206;16.402;2023-09-18T03:57:32;99536.16;;;18.26;96.30
13869;BME280;7004;48.206;16.402;2023-09-18T03:59:58;99542.59;;;18.33;95.44
13869;BME280;7004;48.206;16.402;2023-09-18T04:02:26;99545.97;;;18.53;94.69
13869;BME280;7004;48.206;16.402;2023-09-18T04:04:53;99538.00;;;18.61;94.64
13869;BME280;7004;48.206;16.402;2023-09-18T04:07:20;99531.59;;;18.54;95.52
13869;BME280;7004;48.206;16.402;2023-09-18T04:09:46;99521.44;;;18.40;97.53
13869;BME280;7004;48.206;16.402;2023-09-18T04:12:13;99533.31;;;18.09;98.62
13869;BME280;7004;48.206;16.402;2023-09-18T04:14:39;99531.88;;;18.15;98.42
13869;BME280;7004;48.206;16.402;2023-09-18T04:17:06;99531.03;;;18.15;97.96
13869;BME280;7004;48.206;16.402;2023-09-18T04:19:32;99531.63;;;18.08;98.02
13869;BME280;7004;48.206;16.402;2023-09-18T04:21:58;99521.09;;;18.25;96.95
13869;BME280;7004;48.206;16.402;2023-09-18T04:24:26;99527.50;;;18.14;97.97
13869;BME280;7004;48.206;16.402;2023-09-18T04:26:52;99518.13;;;18.28;97.08
13869;BME280;7004;48.206;16.402;2023-09-18T04:29:19;99517.38;;;18.36;96.63
13869;BME280;7004;48.206;16.402;2023-09-18T04:31:45;99518.69;;;18.31;96.73
13869;BME280;7004;48.206;16.402;2023-09-18T04:34:12;99520.03;;;18.36;97.39
13869;BME280;7004;48.206;16.402;2023-09-18T04:36:38;99523.91;;;18.23;97.72
13869;BME280;7004;48.206;16.402;2023-09-18T04:39:05;99515.84;;;18.33;97.18
13869;BME280;7004;48.206;16.402;2023-09-18T04:41:32;99514.28;;;18.12;98.60
13869;BME280;7004;48.206;16.402;2023-09-18T04:43:59;99514.50;;;18.01;98.69
13869;BME280;7004;48.206;16.402;2023-09-18T04:46:25;99516.88;;;18.04;99.62
13869;BME280;7004;48.206;16.402;2023-09-18T04:48:52;99509.63;;;18.15;98.09
13869;BME280;7004;48.206;16.402;2023-09-18T04:51:18;99500.97;;;18.21;98.33
13869;BME280;7004;48.206;16.402;2023-09-18T04:53:44;99496.78;;;18.36;97.29
13869;BME280;7004;48.206;16.402;2023-09-18T04:56:10;99503.59;;;18.12;98.72
13869;BME280;7004;48.206;16.402;2023-09-18T04:58:37;99504.06;;;18.26;97.53
13869;BME280;7004;48.206;16.402;2023-09-18T05:01:04;99503.66;;;18.21;98.12
13869;BME280;7004;48.206;16.402;2023-09-18T05:03:36;99493.34;;;18.26;98.41
13869;BME280;7004;48.206;16.402;2023-09-18T05:06:02;99499.38;;;18.28;98.57
13869;BME280;7004;48.206;16.402;2023-09-18T05:08:31;99492.69;;;18.24;99.15
13869;BME280;7004;48.206;16.402;2023-09-18T05:10:57;99499.25;;;18.29;98.44
13869;BME280;7004;48.206;16.402;2023-09-18T05:13:24;99500.47;;;18.17;99.91
13869;BME280;7004;48.206;16.402;2023-09-18T05:15:50;99493.22;;;18.27;98.76
13869;BME280;7004;48.206;16.402;2023-09-18T05:18:16;99487.63;;;18.39;98.47
13869;BME280;7004;48.206;16.402;2023-09-18T05:20:42;99496.66;;;18.55;97.44
13869;BME280;7004;48.206;16.402;2023-09-18T05:23:08;99498.31;;;18.74;97.34
13869;BME280;7004;48.206;16.402;2023-09-18T05:25:35;99506.34;;;18.92;98.52
13869;BME280;7004;48.206;16.402;2023-09-18T05:28:04;99508.81;;;19.12;98.20
13869;BME280;7004;48.206;16.402;2023-09-18T05:30:35;99515.28;;;18.83;98.63
13869;BME280;7004;48.206;16.402;2023-09-18T05:33:05;99508.66;;;19.13;98.38
13869;BME280;7004;48.206;16.402;2023-09-18T05:35:36;99501.00;;;19.18;98.19
13869;BME280;7004;48.206;16.402;2023-09-18T05:38:05;99497.63;;;18.90;99.46
13869;BME280;7004;48.206;16.402;2023-09-18T05:40:32;99485.56;;;19.12;98.33
13869;BME280;7004;48.206;16.402;2023-09-18T05:42:58;99484.00;;;19.02;99.67
13869;BME280;7004;48.206;16.402;2023-09-18T05:45:25;99481.09;;;19.21;99.00
13869;BME280;7004;48.206;16.402;2023-09-18T05:47:52;99478.94;;;19.59;97.73
13869;BME280;7004;48.206;16.402;2023-09-18T05:50:19;99471.19;;;19.56;97.78
13869;BME280;7004;48.206;16.402;2023-09-18T05:52:47;99475.47;;;19.67;98.10
13869;BME280;7004;48.206;16.402;2023-09-18T05:55:15;99470.28;;;19.73;96.79
13869;BME280;7004;48.206;16.402;2023-09-18T05:57:42;99467.03;;;19.96;96.06
13869;BME280;7004;48.206;16.402;2023-09-18T06:00:09;99462.13;;;19.91;94.99
13869;BME280;7004;48.206;16.402;2023-09-18T06:02:39;99459.06;;;19.70;98.35
13869;BME280;7004;48.206;16.402;2023-09-18T06:05:06;99455.09;;;19.90;97.29
13869;BME280;7004;48.206;16.402;2023-09-18T06:07:33;99449.22;;;19.95;97.01
13869;BME280;7004;48.206;16.402;2023-09-18T06:10:01;99440.69;;;20.07;96.50
13869;BME280;7004;48.206;16.402;2023-09-18T06:12:27;99442.75;;;20.22;97.33
13869;BME280;7004;48.206;16.402;2023-09-18T06:14:53;99431.53;;;20.26;95.69
13869;BME280;7004;48.206;16.402;2023-09-18T06:17:19;99427.41;;;19.90;96.99
13869;BME280;7004;48.206;16.402;2023-09-18T06:19:46;99427.41;;;19.90;98.07
13869;BME280;7004;48.206;16.402;2023-09-18T06:22:13;99430.16;;;20.30;96.37
13869;BME280;7004;48.206;16.402;2023-09-18T06:24:39;99428.69;;;20.61;94.01
13869;BME280;7004;48.206;16.402;2023-09-18T06:27:05;99422.97;;;20.39;95.43
13869;BME280;7004;48.206;16.402;2023-09-18T06:29:35;99429.16;;;20.72;93.39
13869;BME280;7004;48.206;16.402;2023-09-18T06:32:03;99436.06;;;20.59;92.91
13869;BME280;7004;48.206;16.402;2023-09-18T06:34:30;99445.94;;;20.99;91.45
13869;BME280;7004;48.206;16.402;2023-09-18T06:36:56;99440.34;;;21.09;89.84
13869;BME280;7004;48.206;16.402;2023-09-18T06:39:22;99437.66;;;21.09;90.59
13869;BME280;7004;48.206;16.402;2023-09-18T06:41:49;99432.63;;;21.22;89.06
13869;BME280;7004;48.206;16.402;2023-09-18T06:44:15;99425.69;;;21.28;86.94
13869;BME280;7004;48.206;16.402;2023-09-18T06:46:42;99428.00;;;21.47;85.61
13869;BME280;7004;48.206;16.402;2023-09-18T06:49:08;99428.31;;;21.52;85.67
13869;BME280;7004;48.206;16.402;2023-09-18T06:51:34;99428.75;;;21.95;83.06
13869;BME280;7004;48.206;16.402;2023-09-18T06:54:00;99423.06;;;22.21;83.10
13869;BME280;7004;48.206;16.402;2023-09-18T06:56:28;99421.75;;;22.09;82.56
13869;BME280;7004;48.206;16.402;2023-09-18T06:58:55;99421.16;;;22.68;80.54
13869;BME280;7004;48.206;16.402;2023-09-18T07:01:22;99421.97;;;22.31;80.55
13869;BME280;7004;48.206;16.402;2023-09-18T07:03:50;99418.94;;;22.86;79.39
13869;BME280;7004;48.206;16.402;2023-09-18T07:06:16;99427.91;;;22.64;79.28
13869;BME280;7004;48.206;16.402;2023-09-18T07:08:46;99423.66;;;23.22;75.55
13869;BME280;7004;48.206;16.402;2023-09-18T07:11:13;99429.22;;;23.36;76.28
13869;BME280;7004;48.206;16.402;2023-09-18T07:13:39;99412.16;;;23.65;74.84
13869;BME280;7004;48.206;16.402;2023-09-18T07:16:06;99416.63;;;23.72;74.86
13869;BME280;7004;48.206;16.402;2023-09-18T07:18:32;99424.97;;;24.35;71.29
13869;BME280;7004;48.206;16.402;2023-09-18T07:20:58;99428.06;;;25.03;69.32
13869;BME280;7004;48.206;16.402;2023-09-18T07:23:24;99423.81;;;25.22;68.04
13869;BME280;7004;48.206;16.402;2023-09-18T07:25:50;99421.56;;;25.81;64.25
13869;BME280;7004;48.206;16.402;2023-09-18T07:28:16;99408.03;;;25.81;64.16
13869;BME280;7004;48.206;16.402;2023-09-18T07:30:45;99399.59;;;26.10;62.85
13869;BME280;7004;48.206;16.402;2023-09-18T07:33:14;99402.09;;;26.25;62.05
13869;BME280;7004;48.206;16.402;2023-09-18T07:35:47;99400.25;;;26.32;61.67
13869;BME280;7004;48.206;16.402;2023-09-18T07:38:19;99406.56;;;25.78;61.62
13869;BME280;7004;48.206;16.402;2023-09-18T07:40:46;99402.53;;;26.42;60.17
13869;BME280;7004;48.206;16.402;2023-09-18T07:43:13;99408.59;;;26.44;59.89
13869;BME280;7004;48.206;16.402;2023-09-18T07:45:40;99398.78;;;26.36;60.17
13869;BME280;7004;48.206;16.402;2023-09-18T07:48:09;99401.94;;;26.80;59.35
13869;BME280;7004;48.206;16.402;2023-09-18T07:50:35;99405.88;;;26.24;60.48
13869;BME280;7004;48.206;16.402;2023-09-18T07:53:02;99387.56;;;27.58;57.38
13869;BME280;7004;48.206;16.402;2023-09-18T07:55:29;99398.78;;;26.90;59.67
13869;BME280;7004;48.206;16.402;2023-09-18T07:57:56;99396.75;;;26.52;59.31
13869;BME280;7004;48.206;16.402;2023-09-18T08:00:22;99393.34;;;26.17;60.93
13869;BME280;7004;48.206;16.402;2023-09-18T08:02:49;99389.41;;;26.26;59.97
13869;BME280;7004;48.206;16.402;2023-09-18T08:05:17;99384.38;;;26.89;58.18
13869;BME280;7004;48.206;16.402;2023-09-18T08:07:43;99387.72;;;26.25;59.42
13869;BME280;7004;48.206;16.402;2023-09-18T08:10:09;99388.59;;;26.58;58.47
13869;BME280;7004;48.206;16.402;2023-09-18T08:12:36;99392.09;;;26.99;56.63
13869;BME280;7004;48.206;16.402;2023-09-18T08:15:03;99403.78;;;26.79;56.25
13869;BME280;7004;48.206;16.402;2023-09-18T08:17:32;99399.00;;;26.28;58.98
13869;BME280;7004;48.206;16.402;2023-09-18T08:19:58;99400.06;;;26.74;59.08
13869;BME280;7004;48.206;16.402;2023-09-18T08:22:24;99395.03;;;26.84;58.39
13869;BME280;7004;48.206;16.402;2023-09-18T08:24:50;99403.38;;;26.89;56.38
13869;BME280;7004;48.206;16.402;2023-09-18T08:27:19;99393.16;;;26.38;58.01
13869;BME280;7004;48.206;16.402;2023-09-18T08:29:45;99389.63;;;26.84;57.42
13869;BME280;7004;48.206;16.402;2023-09-18T08:32:12;99386.13;;;27.42;55.42
13869;BME280;7004;48.206;16.402;2023-09-18T08:34:38;99393.94;;;27.05;56.08
13869;BME280;7004;48.206;16.402;2023-09-18T08:37:04;99386.88;;;27.04;56.48
13869;BME280;7004;48.206;16.402;2023-09-18T08:39:30;99379.44;;;26.53;56.67
13869;BME280;7004;48.206;16.402;2023-09-18T08:42:04;99378.34;;;26.94;56.84
13869;BME280;7004;48.206;16.402;2023-09-18T08:44:31;99374.06;;;27.38;55.12
13869;BME280;7004;48.206;16.402;2023-09-18T08:46:57;99382.56;;;26.56;57.32
13869;BME280;7004;48.206;16.402;2023-09-18T08:49:25;99366.31;;;26.56;56.99
13869;BME280;7004;48.206;16.402;2023-09-18T08:51:53;99382.03;;;27.13;56.44
13869;BME280;7004;48.206;16.402;2023-09-18T08:54:20;99366.69;;;26.67;57.35
13869;BME280;7004;48.206;16.402;2023-09-18T08:56:47;99372.00;;;27.33;54.89
13869;BME280;7004;48.206;16.402;2023-09-18T08:59:14;99368.50;;;27.19;55.58
13869;BME280;7004;48.206;16.402;2023-09-18T09:01:40;99370.09;;;27.34;54.52
13869;BME280;7004;48.206;16.402;2023-09-18T09:04:06;99373.75;;;27.01;55.02
13869;BME280;7004;48.206;16.402;2023-09-18T09:06:32;99375.97;;;27.11;56.84
13869;BME280;7004;48.206;16.402;2023-09-18T09:08:59;99350.53;;;28.34;52.23
13869;BME280;7004;48.206;16.402;2023-09-18T09:11:25;99362.44;;;28.32;52.05
13869;BME280;7004;48.206;16.402;2023-09-18T09:14:12;99356.53;;;29.11;49.50
13869;BME280;7004;48.206;16.402;2023-09-18T09:16:50;99354.25;;;27.37;53.31
13869;BME280;7004;48.206;16.402;2023-09-18T09:19:18;99368.47;;;27.71;51.16
13869;BME280;7004;48.206;16.402;2023-09-18T09:21:45;99353.03;;;28.60;49.30
13869;BME280;7004;48.206;16.402;2023-09-18T09:24:12;99354.38;;;27.49;52.38
13869;BME280;7004;48.206;16.402;2023-09-18T09:26:41;99351.16;;;28.04;50.50
13869;BME280;7004;48.206;16.402;2023-09-18T09:29:19;99347.25;;;28.50;48.88
13869;BME280;7004;48.206;16.402;2023-09-18T09:31:46;99349.50;;;28.78;49.10
13869;BME280;7004;48.206;16.402;2023-09-18T09:34:23;99338.31;;;28.68;48.13
13869;BME280;7004;48.206;16.402;2023-09-18T09:36:54;99340.00;;;29.43;46.66
13869;BME280;7004;48.206;16.402;2023-09-18T09:39:21;99339.09;;;28.75;48.29
13869;BME280;7004;48.206;16.402;2023-09-18T09:41:52;99330.16;;;28.18;49.79
13869;BME280;7004;48.206;16.402;2023-09-18T09:44:19;99324.84;;;29.65;46.69
13869;BME280;7004;48.206;16.402;2023-09-18T09:46:50;99332.22;;;28.91;48.18
13869;BME280;7004;48.206;16.402;2023-09-18T09:49:17;99321.78;;;28.88;47.83
13869;BME280;7004;48.206;16.402;2023-09-18T09:51:46;99321.56;;;28.89;48.16
13869;BME280;7004;48.206;16.402;2023-09-18T09:54:12;99324.41;;;28.58;48.86
13869;BME280;7004;48.206;16.402;2023-09-18T09:56:49;99320.28;;;28.23;50.28
13869;BME280;7004;48.206;16.402;2023-09-18T09:59:18;99294.50;;;27.76;50.82
13869;BME280;7004;48.206;16.402;2023-09-18T10:01:47;99299.09;;;27.82;50.82
13869;BME280;7004;48.206;16.402;2023-09-18T10:04:18;99296.03;;;28.72;49.18
13869;BME280;7004;48.206;16.402;2023-09-18T10:07:14;99294.34;;;28.02;50.74
13869;BME280;7004;48.206;16.402;2023-09-18T10:09:41;99299.88;;;28.14;50.46
13869;BME280;7004;48.206;16.402;2023-09-18T10:12:13;99307.31;;;27.62;52.00
13869;BME280;7004;48.206;16.402;2023-09-18T10:14:42;99302.09;;;27.99;51.84
13869;BME280;7004;48.206;16.402;2023-09-18T10:17:19;99295.16;;;28.71;48.70
13869;BME280;7004;48.206;16.402;2023-09-18T10:19:58;99302.78;;;29.36;47.40
13869;BME280;7004;48.206;16.402;2023-09-18T10:22:46;99288.47;;;28.30;49.21
13869;BME280;7004;48.206;16.402;2023-09-18T10:25:24;99287.03;;;28.28;49.70
13869;BME280;7004;48.206;16.402;2023-09-18T10:27:54;99282.03;;;28.00;50.05
13869;BME280;7004;48.206;16.402;2023-09-18T10:30:25;99277.78;;;27.79;50.72
13869;BME280;7004;48.206;16.402;2023-09-18T10:32:52;99272.41;;;28.22;49.12
13869;BME280;7004;48.206;16.402;2023-09-18T10:35:19;99265.38;;;28.15;50.17
13869;BME280;7004;48.206;16.402;2023-09-18T10:37:48;99265.84;;;28.12;49.71
13869;BME280;7004;48.206;16.402;2023-09-18T10:40:17;99265.13;;;27.98;50.05
13869;BME280;7004;48.206;16.402;2023-09-18T10:42:48;99259.38;;;27.49;50.88
13869;BME280;7004;48.206;16.402;2023-09-18T10:45:16;99250.06;;;28.02;49.85
13869;BME280;7004;48.206;16.402;2023-09-18T10:47:44;99258.44;;;27.69;50.77
13869;BME280;7004;48.206;16.402;2023-09-18T10:50:12;99243.06;;;28.13;48.65
13869;BME280;7004;48.206;16.402;2023-09-18T10:52:48;99250.88;;;28.02;49.18
13869;BME280;7004;48.206;16.402;2023-09-18T10:55:14;99235.16;;;28.29;49.49
13869;BME280;7004;48.206;16.402;2023-09-18T11:00:18;99239.00;;;29.32;46.19
13869;BME280;7004;48.206;16.402;2023-09-18T11:02:51;99250.94;;;28.64;47.66
13869;BME280;7004;48.206;16.402;2023-09-18T11:05:30;99232.31;;;29.58;45.98
13869;BME280;7004;48.206;16.402;2023-09-18T11:11:07;99225.53;;;28.52;48.07
13869;BME280;7004;48.206;16.402;2023-09-18T11:13:47;99218.81;;;28.73;47.87
13869;BME280;7004;48.206;16.402;2023-09-18T11:18:41;99206.53;;;28.52;49.17
13869;BME280;7004;48.206;16.402;2023-09-18T11:21:12;99210.59;;;29.70;46.37
13869;BME280;7004;48.206;16.402;2023-09-18T11:23:39;99207.56;;;29.48;46.23
13869;BME280;7004;48.206;16.402;2023-09-18T11:26:11;99211.78;;;28.84;47.44
13869;BME280;7004;48.206;16.402;2023-09-18T11:28:38;99200.34;;;29.12;47.05
13869;BME280;7004;48.206;16.402;2023-09-18T11:31:04;99206.47;;;29.07;47.43
13869;BME280;7004;48.206;16.402;2023-09-18T11:36:05;99191.56;;;29.52;47.17
13869;BME280;7004;48.206;16.402;2023-09-18T11:38:34;99202.91;;;29.79;45.07
13869;BME280;7004;48.206;16.402;2023-09-18T11:41:24;99196.78;;;29.83;45.80
13869;BME280;7004;48.206;16.402;2023-09-18T11:46:49;99184.53;;;28.72;47.21
13869;BME280;7004;48.206;16.402;2023-09-18T11:49:23;99188.47;;;28.58;47.86
13869;BME280;7004;48.206;16.402;2023-09-18T11:51:54;99180.16;;;28.52;47.93
13869;BME280;7004;48.206;16.402;2023-09-18T11:54:20;99181.38;;;28.57;47.74
13869;BME280;7004;48.206;16.402;2023-09-18T11:56:50;99184.03;;;29.12;46.35
13869;BME280;7004;48.206;16.402;2023-09-18T11:59:16;99181.22;;;29.72;45.12
13869;BME280;7004;48.206;16.402;2023-09-18T12:01:53;99171.94;;;30.67;43.19
13869;BME280;7004;48.206;16.402;2023-09-18T12:04:27;99159.31;;;30.14;44.59
13869;BME280;7004;48.206;16.402;2023-09-18T12:06:54;99161.53;;;29.58;45.13
13869;BME280;7004;48.206;16.402;2023-09-18T12:09:20;99154.88;;;29.54;45.74
13869;BME280;7004;48.206;16.402;2023-09-18T12:11:47;99163.72;;;29.68;45.63
13869;BME280;7004;48.206;16.402;2023-09-18T12:14:20;99157.44;;;30.03;45.06
13869;BME280;7004;48.206;16.402;2023-09-18T12:16:46;99162.22;;;29.42;46.62
13869;BME280;7004;48.206;16.402;2023-09-18T12:19:19;99146.13;;;29.40;47.40
13869;BME280;7004;48.206;16.402;2023-09-18T12:21:48;99141.69;;;30.05;46.19
13869;BME280;7004;48.206;16.402;2023-09-18T12:24:25;99129.41;;;30.55;44.63
13869;BME280;7004;48.206;16.402;2023-09-18T12:26:52;99139.97;;;29.57;46.45
13869;BME280;7004;48.206;16.402;2023-09-18T12:29:22;99114.78;;;30.61;44.13
13869;BME280;7004;48.206;16.402;2023-09-18T12:31:49;99119.81;;;30.40;44.34
13869;BME280;7004;48.206;16.402;2023-09-18T12:34:18;99115.28;;;29.94;44.92
13869;BME280;7004;48.206;16.402;2023-09-18T12:36:47;99107.78;;;30.65;44.13
13869;BME280;7004;48.206;16.402;2023-09-18T12:39:14;99108.50;;;30.20;44.64
13869;BME280;7004;48.206;16.402;2023-09-18T12:41:46;99102.59;;;29.99;44.79
13869;BME280;7004;48.206;16.402;2023-09-18T12:44:13;99104.56;;;30.68;44.14
13869;BME280;7004;48.206;16.402;2023-09-18T12:46:43;99099.16;;;31.30;42.39
13869;BME280;7004;48.206;16.402;2023-09-18T12:51:43;99094.66;;;30.79;43.49
13869;BME280;7004;48.206;16.402;2023-09-18T12:54:10;99106.13;;;30.23;44.85
13869;BME280;7004;48.206;16.402;2023-09-18T12:56:42;99106.47;;;30.15;45.30
13869;BME280;7004;48.206;16.402;2023-09-18T12:59:09;99104.66;;;30.73;44.22
13869;BME280;7004;48.206;16.402;2023-09-18T13:01:35;99108.00;;;30.11;45.39
13869;BME280;7004;48.206;16.402;2023-09-18T13:04:04;99106.63;;;29.97;45.86
13869;BME280;7004;48.206;16.402;2023-09-18T13:06:32;99108.59;;;30.13;45.62
13869;BME280;7004;48.206;16.402;2023-09-18T13:09:19;99107.03;;;30.41;45.15
13869;BME280;7004;48.206;16.402;2023-09-18T13:12:01;99113.22;;;30.01;45.01
13869;BME280;7004;48.206;16.402;2023-09-18T13:14:28;99120.59;;;30.00;44.73
13869;BME280;7004;48.206;16.402;2023-09-18T13:17:01;99112.31;;;29.95;44.10
13869;BME280;7004;48.206;16.402;2023-09-18T13:19:30;99116.31;;;29.93;44.82
13869;BME280;7004;48.206;16.402;2023-09-18T13:21:57;99104.59;;;29.80;45.22
13869;BME280;7004;48.206;16.402;2023-09-18T13:24:30;99122.13;;;29.73;45.60